sensor_id;sensor_type;location;lat;lon;timestamp;temperature;humidity
72604;DHT22;60645;56.968;24.196;2024-02-14T00:00:54;1.50;99.90
72604;DHT22;60645;56.968;24.196;2024-02-14T00:03:22;1.60;99.90
72604;DHT22;60645;56.968;24.196;2024-02-14T00:05:50;1.50;99.90
72604;DHT22;60645;56.968;24.196;2024-02-14T00:08:19;1.50;99.90
72604;DHT22;60645;56.968;24.196;2024-02-14T00:10:48;1.60;99.90
72604;DHT22;60645;56.968;24.196;2024-02-14T00:13:15;1.60;99.90
72604;DHT22;60645;56.968;24.196;2024-02-14T00:15:45;1.30;99.90
72604;DHT22;60645;56.968;24.196;2024-02-14T00:18:13;1.50;99.90
72604;DHT22;60645;56.968;24.196;2024-02-14T00:20:40;1.60;99.90
72604;DHT22;60645;56.968;24.196;2024-02-14T00:23:07;1.70;99.90
72604;DHT22;60645;56.968;24.196;2024-02-14T00:25:34;1.40;99.90
72604;DHT22;60645;56.968;24.196;2024-02-14T00:28:01;1.40;99.90
72604;DHT22;60645;56.968;24.196;2024-02-14T00:30:27;1.30;99.90
72604;DHT22;60645;56.968;24.196;2024-02-14T00:32:56;1.40;99.90
72604;DHT22;60645;56.968;24.196;2024-02-14T00:35:24;1.40;99.90
72604;DHT22;60645;56.968;24.196;2024-02-14T00:37:50;1.30;99.90
72604;DHT22;60645;56.968;24.196;2024-02-14T00:40:18;1.30;99.90
72604;DHT22;60645;56.968;24.196;2024-02-14T00:42:45;1.30;99.90
72604;DHT22;60645;56.968;24.196;2024-02-14T00:45:12;1.30;99.90
72604;DHT22;60645;56.968;24.196;2024-02-14T00:47:39;1.10;99.90
72604;DHT22;60645;56.968;24.196;2024-02-14T00:50:06;1.20;99.90
72604;DHT22;60645;56.968;24.196;2024-02-14T00:52:33;1.20;99.90
72604;DHT22;60645;56.968;24.196;2024-02-14T00:55:01;1.40;99.90
72604;DHT22;60645;56.968;24.196;2024-02-14T00:57:30;1.30;99.90
72604;DHT22;60645;56.968;24.196;2024-02-14T00:59:58;1.30;99.90
72604;DHT22;60645;56.968;24.196;2024-02-14T01:02:26;1.40;99.90
72604;DHT22;60645;56.968;24.196;2024-02-14T01:04:53;1.10;99.90
72604;DHT22;60645;56.968;24.196;2024-02-14T01:07:20;1.10;99.90
72604;DHT22;60645;56.968;24.196;2024-02-14T01:09:47;1.30;99.90
72604;DHT22;60645;56.968;24.196;2024-02-14T01:12:14;1.40;99.90
72604;DHT22;60645;56.968;24.196;2024-02-14T01:14:41;1.40;99.90
72604;DHT22;60645;56.968;24.196;2024-02-14T01:17:08;1.40;99.90
72604;DHT22;60645;56.968;24.196;2024-02-14T01:19:35;1.30;99.90
72604;DHT22;60645;56.968;24.196;2024-02-14T01:22:02;1.30;99.90
72604;DHT22;60645;56.968;24.196;2024-02-14T01:24:30;1.50;99.90
72604;DHT22;60645;56.968;24.196;2024-02-14T01:26:57;1.40;99.90
72604;DHT22;60645;56.968;24.196;2024-02-14T01:29:24;1.50;99.90
72604;DHT22;60645;56.968;24.196;2024-02-14T01:31:51;1.40;99.90
72604;DHT22;60645;56.968;24.196;2024-02-14T01:34:17;1.20;99.90
72604;DHT22;60645;56.968;24.196;2024-02-14T01:36:45;1.40;99.90
72604;DHT22;60645;56.968;24.196;2024-02-14T01:39:12;1.40;99.90
72604;DHT22;60645;56.968;24.196;2024-02-14T01:41:44;1.20;99.90
72604;DHT22;60645;56.968;24.196;2024-02-14T01:44:12;1.40;99.90
72604;DHT22;60645;56.968;24.196;2024-02-14T01:46:39;1.40;99.90
72604;DHT22;60645;56.968;24.196;2024-02-14T01:49:06;1.20;99.90
72604;DHT22;60645;56.968;24.196;2024-02-14T01:51:33;1.20;99.90
72604;DHT22;60645;56.968;24.196;2024-02-14T01:54:02;1.20;99.90
72604;DHT22;60645;56.968;24.196;2024-02-14T01:56:29;1.20;99.90
72604;DHT22;60645;56.968;24.196;2024-02-14T01:58:57;1.30;99.90
72604;DHT22;60645;56.968;24.196;2024-02-14T02:01:24;1.50;99.90
72604;DHT22;60645;56.968;24.196;2024-02-14T02:03:51;1.50;99.90
72604;DHT22;60645;56.968;24.196;2024-02-14T02:06:17;1.30;99.90
72604;DHT22;60645;56.968;24.196;2024-02-14T02:08:45;1.70;99.90
72604;DHT22;60645;56.968;24.196;2024-02-14T02:11:11;1.40;99.90
72604;DHT22;60645;56.968;24.196;2024-02-14T02:13:38;1.40;99.90
72604;DHT22;60645;56.968;24.196;2024-02-14T02:16:06;1.50;99.90
72604;DHT22;60645;56.968;24.196;2024-02-14T02:18:32;1.40;99.90
72604;DHT22;60645;56.968;24.196;2024-02-14T02:20:59;1.50;99.90
72604;DHT22;60645;56.968;24.196;2024-02-14T02:23:26;1.30;99.90
72604;DHT22;60645;56.968;24.196;2024-02-14T02:25:53;1.60;99.90
72604;DHT22;60645;56.968;24.196;2024-02-14T02:28:20;1.50;99.90
72604;DHT22;60645;56.968;24.196;2024-02-14T02:30:47;1.50;99.90
72604;DHT22;60645;56.968;24.196;2024-02-14T02:33:14;1.20;99.90
72604;DHT22;60645;56.968;24.196;2024-02-14T02:35:41;1.50;99.90
72604;DHT22;60645;56.968;24.196;2024-02-14T02:38:09;1.40;99.90
72604;DHT22;60645;56.968;24.196;2024-02-14T02:40:35;1.50;99.90
72604;DHT22;60645;56.968;24.196;2024-02-14T02:43:02;1.50;99.90
72604;DHT22;60645;56.968;24.196;2024-02-14T02:45:29;1.50;99.90
72604;DHT22;60645;56.968;24.196;2024-02-14T02:47:56;1.30;99.90
72604;DHT22;60645;56.968;24.196;2024-02-14T02:50:23;1.30;99.90
72604;DHT22;60645;56.968;24.196;2024-02-14T02:52:50;1.50;99.90
72604;DHT22;60645;56.968;24.196;2024-02-14T02:55:17;1.40;99.90
72604;DHT22;60645;56.968;24.196;2024-02-14T02:57:45;1.40;99.90
72604;DHT22;60645;56.968;24.196;2024-02-14T03:00:12;1.40;99.90
72604;DHT22;60645;56.968;24.196;2024-02-14T03:02:40;1.40;99.90
72604;DHT22;60645;56.968;24.196;2024-02-14T03:05:12;1.40;99.90
72604;DHT22;60645;56.968;24.196;2024-02-14T03:07:45;1.60;99.90
72604;DHT22;60645;56.968;24.196;2024-02-14T03:10:11;1.60;99.90
72604;DHT22;60645;56.968;24.196;2024-02-14T03:12:46;1.60;99.90
72604;DHT22;60645;56.968;24.196;2024-02-14T03:15:14;1.40;99.90
72604;DHT22;60645;56.968;24.196;2024-02-14T03:17:41;1.50;99.90
72604;DHT22;60645;56.968;24.196;2024-02-14T03:20:09;1.50;99.90
72604;DHT22;60645;56.968;24.196;2024-02-14T03:22:44;1.50;99.90
72604;DHT22;60645;56.968;24.196;2024-02-14T03:25:18;1.60;99.90
72604;DHT22;60645;56.968;24.196;2024-02-14T03:27:45;1.60;99.90
72604;DHT22;60645;56.968;24.196;2024-02-14T03:30:15;1.60;99.90
72604;DHT22;60645;56.968;24.196;2024-02-14T03:32:44;1.50;99.90
72604;DHT22;60645;56.968;24.196;2024-02-14T03:35:12;1.70;99.90
72604;DHT22;60645;56.968;24.196;2024-02-14T03:37:43;1.70;99.90
72604;DHT22;60645;56.968;24.196;2024-02-14T03:40:14;1.70;99.90
72604;DHT22;60645;56.968;24.196;2024-02-14T03:42:41;1.80;99.90
72604;DHT22;60645;56.968;24.196;2024-02-14T03:45:08;1.70;99.90
72604;DHT22;60645;56.968;24.196;2024-02-14T03:47:35;1.70;99.90
72604;DHT22;60645;56.968;24.196;2024-02-14T03:50:10;1.80;99.90
72604;DHT22;60645;56.968;24.196;2024-02-14T03:52:37;1.70;99.90
72604;DHT22;60645;56.968;24.196;2024-02-14T03:55:04;1.60;99.90
72604;DHT22;60645;56.968;24.196;2024-02-14T03:57:31;1.80;99.90
72604;DHT22;60645;56.968;24.196;2024-02-14T04:00:00;1.60;99.90
72604;DHT22;60645;56.968;24.196;2024-02-14T04:02:31;1.60;99.90
72604;DHT22;60645;56.968;24.196;2024-02-14T04:04:59;1.90;99.80
72604;DHT22;60645;56.968;24.196;2024-02-14T04:07:26;1.80;99.90
72604;DHT22;60645;56.968;24.196;2024-02-14T04:09:53;1.90;99.90
72604;DHT22;60645;56.968;24.196;2024-02-14T04:12:20;1.70;99.80
72604;DHT22;60645;56.968;24.196;2024-02-14T04:14:47;1.80;99.60
72604;DHT22;60645;56.968;24.196;2024-02-14T04:17:14;1.60;99.70
72604;DHT22;60645;56.968;24.196;2024-02-14T04:19:41;1.80;99.90
72604;DHT22;60645;56.968;24.196;2024-02-14T04:22:08;1.70;99.70
72604;DHT22;60645;56.968;24.196;2024-02-14T04:24:35;1.60;99.70
72604;DHT22;60645;56.968;24.196;2024-02-14T04:27:02;1.40;99.90
72604;DHT22;60645;56.968;24.196;2024-02-14T04:29:31;1.40;99.90
72604;DHT22;60645;56.968;24.196;2024-02-14T04:32:00;1.20;99.90
72604;DHT22;60645;56.968;24.196;2024-02-14T04:34:27;1.30;99.90
72604;DHT22;60645;56.968;24.196;2024-02-14T04:36:54;1.40;99.90
72604;DHT22;60645;56.968;24.196;2024-02-14T04:39:21;1.30;99.90
72604;DHT22;60645;56.968;24.196;2024-02-14T04:41:48;1.20;99.90
72604;DHT22;60645;56.968;24.196;2024-02-14T04:44:27;1.30;99.90
72604;DHT22;60645;56.968;24.196;2024-02-14T04:46:54;1.40;99.90
72604;DHT22;60645;56.968;24.196;2024-02-14T04:49:23;1.40;99.90
72604;DHT22;60645;56.968;24.196;2024-02-14T04:51:53;1.30;99.90
72604;DHT22;60645;56.968;24.196;2024-02-14T04:54:20;1.60;99.90
72604;DHT22;60645;56.968;24.196;2024-02-14T04:56:47;1.50;99.90
72604;DHT22;60645;56.968;24.196;2024-02-14T04:59:20;1.30;99.90
72604;DHT22;60645;56.968;24.196;2024-02-14T05:01:47;1.20;99.90
72604;DHT22;60645;56.968;24.196;2024-02-14T05:04:14;1.20;99.90
72604;DHT22;60645;56.968;24.196;2024-02-14T05:06:43;1.00;99.90
72604;DHT22;60645;56.968;24.196;2024-02-14T05:09:10;1.10;99.90
72604;DHT22;60645;56.968;24.196;2024-02-14T05:11:37;0.90;99.90
72604;DHT22;60645;56.968;24.196;2024-02-14T05:14:04;0.90;99.90
72604;DHT22;60645;56.968;24.196;2024-02-14T05:16:31;0.90;99.90
72604;DHT22;60645;56.968;24.196;2024-02-14T05:18:58;1.10;99.90
72604;DHT22;60645;56.968;24.196;2024-02-14T05:21:25;1.10;99.90
72604;DHT22;60645;56.968;24.196;2024-02-14T05:23:51;1.20;99.90
72604;DHT22;60645;56.968;24.196;2024-02-14T05:26:18;1.30;99.90
72604;DHT22;60645;56.968;24.196;2024-02-14T05:28:45;1.20;99.90
72604;DHT22;60645;56.968;24.196;2024-02-14T05:31:13;1.30;99.90
72604;DHT22;60645;56.968;24.196;2024-02-14T05:33:39;1.60;99.90
72604;DHT22;60645;56.968;24.196;2024-02-14T05:36:07;1.30;99.90
72604;DHT22;60645;56.968;24.196;2024-02-14T05:38:33;1.40;99.90
72604;DHT22;60645;56.968;24.196;2024-02-14T05:41:01;1.20;99.90
72604;DHT22;60645;56.968;24.196;2024-02-14T05:43:28;1.30;99.90
72604;DHT22;60645;56.968;24.196;2024-02-14T05:45:55;1.50;99.90
72604;DHT22;60645;56.968;24.196;2024-02-14T05:48:22;1.50;99.90
72604;DHT22;60645;56.968;24.196;2024-02-14T05:50:49;1.50;99.90
72604;DHT22;60645;56.968;24.196;2024-02-14T05:53:16;1.60;99.90
72604;DHT22;60645;56.968;24.196;2024-02-14T05:55:43;1.50;99.90
72604;DHT22;60645;56.968;24.196;2024-02-14T05:58:10;1.50;99.90
72604;DHT22;60645;56.968;24.196;2024-02-14T06:00:38;1.60;99.90
72604;DHT22;60645;56.968;24.196;2024-02-14T06:03:05;1.50;99.90
72604;DHT22;60645;56.968;24.196;2024-02-14T06:05:34;1.50;99.90
72604;DHT22;60645;56.968;24.196;2024-02-14T06:08:01;1.50;99.90
72604;DHT22;60645;56.968;24.196;2024-02-14T06:10:30;1.30;99.90
72604;DHT22;60645;56.968;24.196;2024-02-14T06:12:56;1.30;99.90
72604;DHT22;60645;56.968;24.196;2024-02-14T06:15:23;1.30;99.90
72604;DHT22;60645;56.968;24.196;2024-02-14T06:17:50;1.50;99.90
72604;DHT22;60645;56.968;24.196;2024-02-14T06:20:18;1.30;99.90
72604;DHT22;60645;56.968;24.196;2024-02-14T06:22:45;1.60;99.90
72604;DHT22;60645;56.968;24.196;2024-02-14T06:25:23;1.60;99.90
72604;DHT22;60645;56.968;24.196;2024-02-14T06:27:49;1.40;99.90
72604;DHT22;60645;56.968;24.196;2024-02-14T06:30:16;1.40;99.90
72604;DHT22;60645;56.968;24.196;2024-02-14T06:32:44;1.40;99.90
72604;DHT22;60645;56.968;24.196;2024-02-14T06:35:12;1.80;99.90
72604;DHT22;60645;56.968;24.196;2024-02-14T06:37:42;1.70;99.90
72604;DHT22;60645;56.968;24.196;2024-02-14T06:40:21;1.70;99.90
72604;DHT22;60645;56.968;24.196;2024-02-14T06:42:48;1.60;99.90
72604;DHT22;60645;56.968;24.196;2024-02-14T06:45:17;1.70;99.90
72604;DHT22;60645;56.968;24.196;2024-02-14T06:47:44;1.60;99.90
72604;DHT22;60645;56.968;24.196;2024-02-14T06:50:11;1.80;99.90
72604;DHT22;60645;56.968;24.196;2024-02-14T06:52:38;1.80;99.90
72604;DHT22;60645;56.968;24.196;2024-02-14T06:55:05;1.80;99.90
72604;DHT22;60645;56.968;24.196;2024-02-14T06:57:31;1.80;99.90
72604;DHT22;60645;56.968;24.196;2024-02-14T06:59:58;1.70;99.90
72604;DHT22;60645;56.968;24.196;2024-02-14T07:02:25;1.90;99.90
72604;DHT22;60645;56.968;24.196;2024-02-14T07:04:54;1.70;99.90
72604;DHT22;60645;56.968;24.196;2024-02-14T07:07:21;1.90;99.90
72604;DHT22;60645;56.968;24.196;2024-02-14T07:09:48;1.80;99.90
72604;DHT22;60645;56.968;24.196;2024-02-14T07:12:15;1.90;99.90
72604;DHT22;60645;56.968;24.196;2024-02-14T07:14:42;1.90;99.90
72604;DHT22;60645;56.968;24.196;2024-02-14T07:17:09;1.80;99.90
72604;DHT22;60645;56.968;24.196;2024-02-14T07:19:36;2.00;99.90
72604;DHT22;60645;56.968;24.196;2024-02-14T07:22:05;1.90;99.90
72604;DHT22;60645;56.968;24.196;2024-02-14T07:24:32;2.00;99.90
72604;DHT22;60645;56.968;24.196;2024-02-14T07:26:58;2.10;99.90
72604;DHT22;60645;56.968;24.196;2024-02-14T07:29:25;2.00;99.90
72604;DHT22;60645;56.968;24.196;2024-02-14T07:31:52;1.90;99.90
72604;DHT22;60645;56.968;24.196;2024-02-14T07:34:19;2.10;99.90
72604;DHT22;60645;56.968;24.196;2024-02-14T07:36:46;1.90;99.90
72604;DHT22;60645;56.968;24.196;2024-02-14T07:39:13;1.90;99.90
72604;DHT22;60645;56.968;24.196;2024-02-14T07:41:40;1.90;99.90
72604;DHT22;60645;56.968;24.196;2024-02-14T07:44:07;1.80;99.90
72604;DHT22;60645;56.968;24.196;2024-02-14T07:46:34;2.00;99.90
72604;DHT22;60645;56.968;24.196;2024-02-14T07:49:01;2.00;99.90
72604;DHT22;60645;56.968;24.196;2024-02-14T07:51:28;2.20;99.90
72604;DHT22;60645;56.968;24.196;2024-02-14T07:53:55;1.90;99.90
72604;DHT22;60645;56.968;24.196;2024-02-14T07:56:22;2.00;99.90
72604;DHT22;60645;56.968;24.196;2024-02-14T07:58:49;2.10;99.90
72604;DHT22;60645;56.968;24.196;2024-02-14T08:01:16;2.00;99.90
72604;DHT22;60645;56.968;24.196;2024-02-14T08:03:43;2.20;99.90
72604;DHT22;60645;56.968;24.196;2024-02-14T08:06:13;2.00;99.90
72604;DHT22;60645;56.968;24.196;2024-02-14T08:08:40;2.20;99.90
72604;DHT22;60645;56.968;24.196;2024-02-14T08:11:07;2.00;99.90
72604;DHT22;60645;56.968;24.196;2024-02-14T08:13:34;2.20;99.90
72604;DHT22;60645;56.968;24.196;2024-02-14T08:16:01;2.50;99.90
72604;DHT22;60645;56.968;24.196;2024-02-14T08:18:28;2.40;99.90
72604;DHT22;60645;56.968;24.196;2024-02-14T08:20:55;2.40;99.90
72604;DHT22;60645;56.968;24.196;2024-02-14T08:23:22;2.30;99.90
72604;DHT22;60645;56.968;24.196;2024-02-14T08:25:49;2.40;99.90
72604;DHT22;60645;56.968;24.196;2024-02-14T08:28:16;2.50;99.90
72604;DHT22;60645;56.968;24.196;2024-02-14T08:30:44;2.60;99.90
72604;DHT22;60645;56.968;24.196;2024-02-14T08:33:11;2.50;99.90
72604;DHT22;60645;56.968;24.196;2024-02-14T08:35:39;2.80;99.90
72604;DHT22;60645;56.968;24.196;2024-02-14T08:38:09;3.00;99.90
72604;DHT22;60645;56.968;24.196;2024-02-14T08:40:36;2.80;99.90
72604;DHT22;60645;56.968;24.196;2024-02-14T08:43:03;2.90;99.90
72604;DHT22;60645;56.968;24.196;2024-02-14T08:45:31;3.00;99.90
72604;DHT22;60645;56.968;24.196;2024-02-14T08:47:58;2.90;99.90
72604;DHT22;60645;56.968;24.196;2024-02-14T08:50:26;3.00;99.90
72604;DHT22;60645;56.968;24.196;2024-02-14T08:52:52;3.20;99.70
72604;DHT22;60645;56.968;24.196;2024-02-14T08:55:19;3.00;99.80
72604;DHT22;60645;56.968;24.196;2024-02-14T08:57:46;3.10;99.80
72604;DHT22;60645;56.968;24.196;2024-02-14T09:00:15;3.10;99.50
72604;DHT22;60645;56.968;24.196;2024-02-14T09:02:46;3.30;99.60
72604;DHT22;60645;56.968;24.196;2024-02-14T09:05:13;3.20;99.70
72604;DHT22;60645;56.968;24.196;2024-02-14T09:07:40;3.20;99.80
72604;DHT22;60645;56.968;24.196;2024-02-14T09:10:08;3.20;99.60
72604;DHT22;60645;56.968;24.196;2024-02-14T09:12:37;3.30;99.70
72604;DHT22;60645;56.968;24.196;2024-02-14T09:15:06;3.20;99.60
72604;DHT22;60645;56.968;24.196;2024-02-14T09:17:33;3.40;99.90
72604;DHT22;60645;56.968;24.196;2024-02-14T09:20:00;3.40;99.90
72604;DHT22;60645;56.968;24.196;2024-02-14T09:22:27;3.50;99.50
72604;DHT22;60645;56.968;24.196;2024-02-14T09:24:55;3.50;99.70
72604;DHT22;60645;56.968;24.196;2024-02-14T09:27:23;3.40;99.70
72604;DHT22;60645;56.968;24.196;2024-02-14T09:29:50;3.50;99.10
72604;DHT22;60645;56.968;24.196;2024-02-14T09:32:17;3.70;98.80
72604;DHT22;60645;56.968;24.196;2024-02-14T09:34:44;3.50;99.00
72604;DHT22;60645;56.968;24.196;2024-02-14T09:37:12;3.80;98.60
72604;DHT22;60645;56.968;24.196;2024-02-14T09:39:39;3.50;98.60
72604;DHT22;60645;56.968;24.196;2024-02-14T09:42:08;3.50;98.90
72604;DHT22;60645;56.968;24.196;2024-02-14T09:44:35;3.40;99.00
72604;DHT22;60645;56.968;24.196;2024-02-14T09:47:05;3.40;99.70
72604;DHT22;60645;56.968;24.196;2024-02-14T09:49:32;3.40;99.30
72604;DHT22;60645;56.968;24.196;2024-02-14T09:52:00;3.50;99.10
72604;DHT22;60645;56.968;24.196;2024-02-14T09:54:29;3.60;99.30
72604;DHT22;60645;56.968;24.196;2024-02-14T09:56:57;3.50;99.10
72604;DHT22;60645;56.968;24.196;2024-02-14T09:59:24;3.50;99.50
72604;DHT22;60645;56.968;24.196;2024-02-14T10:01:51;3.40;99.90
72604;DHT22;60645;56.968;24.196;2024-02-14T10:04:19;3.60;99.40
72604;DHT22;60645;56.968;24.196;2024-02-14T10:06:50;3.50;99.00
72604;DHT22;60645;56.968;24.196;2024-02-14T10:09:18;3.80;98.80
72604;DHT22;60645;56.968;24.196;2024-02-14T10:11:45;3.80;98.90
72604;DHT22;60645;56.968;24.196;2024-02-14T10:14:13;3.50;99.00
72604;DHT22;60645;56.968;24.196;2024-02-14T10:16:41;3.70;98.80
72604;DHT22;60645;56.968;24.196;2024-02-14T10:19:15;3.90;98.70
72604;DHT22;60645;56.968;24.196;2024-02-14T10:21:42;4.10;98.20
72604;DHT22;60645;56.968;24.196;2024-02-14T10:24:11;4.10;97.90
72604;DHT22;60645;56.968;24.196;2024-02-14T10:26:38;4.00;97.10
72604;DHT22;60645;56.968;24.196;2024-02-14T10:29:05;3.90;97.30
72604;DHT22;60645;56.968;24.196;2024-02-14T10:31:32;4.10;97.10
72604;DHT22;60645;56.968;24.196;2024-02-14T10:34:00;4.40;97.10
72604;DHT22;60645;56.968;24.196;2024-02-14T10:36:28;4.20;96.80
72604;DHT22;60645;56.968;24.196;2024-02-14T10:38:57;4.30;96.30
72604;DHT22;60645;56.968;24.196;2024-02-14T10:41:24;4.40;96.30
72604;DHT22;60645;56.968;24.196;2024-02-14T10:43:53;4.40;96.70
72604;DHT22;60645;56.968;24.196;2024-02-14T10:46:20;4.20;96.40
72604;DHT22;60645;56.968;24.196;2024-02-14T10:48:52;4.40;96.10
72604;DHT22;60645;56.968;24.196;2024-02-14T10:51:21;4.40;96.20
72604;DHT22;60645;56.968;24.196;2024-02-14T10:53:48;4.40;95.80
72604;DHT22;60645;56.968;24.196;2024-02-14T10:56:18;4.10;96.10
72604;DHT22;60645;56.968;24.196;2024-02-14T10:58:48;4.20;96.20
72604;DHT22;60645;56.968;24.196;2024-02-14T11:01:16;4.20;95.40
72604;DHT22;60645;56.968;24.196;2024-02-14T11:03:43;4.40;95.50
72604;DHT22;60645;56.968;24.196;2024-02-14T11:06:15;4.40;95.30
72604;DHT22;60645;56.968;24.196;2024-02-14T11:08:42;4.40;94.80
72604;DHT22;60645;56.968;24.196;2024-02-14T11:11:09;4.40;94.50
72604;DHT22;60645;56.968;24.196;2024-02-14T11:13:38;4.80;94.10
72604;DHT22;60645;56.968;24.196;2024-02-14T11:16:05;4.60;94.10
72604;DHT22;60645;56.968;24.196;2024-02-14T11:18:35;4.80;94.20
72604;DHT22;60645;56.968;24.196;2024-02-14T11:21:03;4.50;94.20
72604;DHT22;60645;56.968;24.196;2024-02-14T11:23:31;4.60;94.20
72604;DHT22;60645;56.968;24.196;2024-02-14T11:25:59;4.80;93.90
72604;DHT22;60645;56.968;24.196;2024-02-14T11:28:26;4.70;93.70
72604;DHT22;60645;56.968;24.196;2024-02-14T11:31:01;4.60;93.00
72604;DHT22;60645;56.968;24.196;2024-02-14T11:33:31;5.00;93.00
72604;DHT22;60645;56.968;24.196;2024-02-14T11:35:58;5.00;92.40
72604;DHT22;60645;56.968;24.196;2024-02-14T11:38:28;4.80;92.50
72604;DHT22;60645;56.968;24.196;2024-02-14T11:40:56;5.00;93.00
72604;DHT22;60645;56.968;24.196;2024-02-14T11:43:24;4.90;93.20
72604;DHT22;60645;56.968;24.196;2024-02-14T11:45:51;5.00;92.80
72604;DHT22;60645;56.968;24.196;2024-02-14T11:48:21;5.00;92.40
72604;DHT22;60645;56.968;24.196;2024-02-14T11:50:51;5.60;91.70
72604;DHT22;60645;56.968;24.196;2024-02-14T11:53:18;5.60;90.80
72604;DHT22;60645;56.968;24.196;2024-02-14T11:55:46;6.00;89.90
72604;DHT22;60645;56.968;24.196;2024-02-14T11:58:16;5.80;88.90
72604;DHT22;60645;56.968;24.196;2024-02-14T12:00:44;5.60;90.00
72604;DHT22;60645;56.968;24.196;2024-02-14T12:05:44;5.50;90.30
72604;DHT22;60645;56.968;24.196;2024-02-14T12:08:14;5.20;91.10
72604;DHT22;60645;56.968;24.196;2024-02-14T12:10:42;5.60;90.60
72604;DHT22;60645;56.968;24.196;2024-02-14T12:13:09;5.60;90.00
72604;DHT22;60645;56.968;24.196;2024-02-14T12:15:39;5.60;90.40
72604;DHT22;60645;56.968;24.196;2024-02-14T12:18:06;5.40;90.60
72604;DHT22;60645;56.968;24.196;2024-02-14T12:20:33;5.40;91.20
72604;DHT22;60645;56.968;24.196;2024-02-14T12:23:00;5.20;91.90
72604;DHT22;60645;56.968;24.196;2024-02-14T12:25:27;4.80;92.30
72604;DHT22;60645;56.968;24.196;2024-02-14T12:27:54;4.60;93.00
72604;DHT22;60645;56.968;24.196;2024-02-14T12:30:25;4.40;94.10
72604;DHT22;60645;56.968;24.196;2024-02-14T12:33:00;4.50;94.00
72604;DHT22;60645;56.968;24.196;2024-02-14T12:35:34;4.60;93.90
72604;DHT22;60645;56.968;24.196;2024-02-14T12:38:07;4.40;93.90
72604;DHT22;60645;56.968;24.196;2024-02-14T12:40:36;4.50;94.00
72604;DHT22;60645;56.968;24.196;2024-02-14T12:43:03;4.60;93.70
72604;DHT22;60645;56.968;24.196;2024-02-14T12:45:32;4.60;93.80
72604;DHT22;60645;56.968;24.196;2024-02-14T12:47:59;4.50;93.80
72604;DHT22;60645;56.968;24.196;2024-02-14T12:50:26;4.60;93.60
72604;DHT22;60645;56.968;24.196;2024-02-14T12:52:53;4.70;93.20
72604;DHT22;60645;56.968;24.196;2024-02-14T12:55:20;4.90;93.00
72604;DHT22;60645;56.968;24.196;2024-02-14T12:57:47;4.90;92.70
72604;DHT22;60645;56.968;24.196;2024-02-14T13:00:14;4.80;92.70
72604;DHT22;60645;56.968;24.196;2024-02-14T13:02:42;4.80;92.50
72604;DHT22;60645;56.968;24.196;2024-02-14T13:05:09;4.60;92.60
72604;DHT22;60645;56.968;24.196;2024-02-14T13:07:36;4.60;93.70
72604;DHT22;60645;56.968;24.196;2024-02-14T13:10:03;4.70;93.60
72604;DHT22;60645;56.968;24.196;2024-02-14T13:12:30;4.90;92.60
72604;DHT22;60645;56.968;24.196;2024-02-14T13:14:56;4.90;92.70
72604;DHT22;60645;56.968;24.196;2024-02-14T13:17:23;4.80;92.80
72604;DHT22;60645;56.968;24.196;2024-02-14T13:19:52;4.80;93.10
72604;DHT22;60645;56.968;24.196;2024-02-14T13:22:20;4.60;94.20
72604;DHT22;60645;56.968;24.196;2024-02-14T13:24:46;4.50;94.60
72604;DHT22;60645;56.968;24.196;2024-02-14T13:27:13;4.60;94.30
72604;DHT22;60645;56.968;24.196;2024-02-14T13:29:41;4.60;94.60
72604;DHT22;60645;56.968;24.196;2024-02-14T13:32:08;4.40;94.80
72604;DHT22;60645;56.968;24.196;2024-02-14T13:34:35;4.70;94.60
72604;DHT22;60645;56.968;24.196;2024-02-14T13:37:02;4.80;94.40
72604;DHT22;60645;56.968;24.196;2024-02-14T13:39:29;4.50;94.60
72604;DHT22;60645;56.968;24.196;2024-02-14T13:41:56;4.40;94.70
72604;DHT22;60645;56.968;24.196;2024-02-14T13:44:25;4.70;94.90
72604;DHT22;60645;56.968;24.196;2024-02-14T13:46:52;4.50;94.60
72604;DHT22;60645;56.968;24.196;2024-02-14T13:49:19;4.50;94.70
72604;DHT22;60645;56.968;24.196;2024-02-14T13:51:50;4.60;94.60
72604;DHT22;60645;56.968;24.196;2024-02-14T13:54:18;4.70;94.50
72604;DHT22;60645;56.968;24.196;2024-02-14T13:56:45;4.70;94.80
72604;DHT22;60645;56.968;24.196;2024-02-14T13:59:15;4.60;94.50
72604;DHT22;60645;56.968;24.196;2024-02-14T14:01:42;4.70;94.90
72604;DHT22;60645;56.968;24.196;2024-02-14T14:04:09;4.60;94.70
72604;DHT22;60645;56.968;24.196;2024-02-14T14:06:35;4.60;94.80
72604;DHT22;60645;56.968;24.196;2024-02-14T14:09:02;4.50;95.00
72604;DHT22;60645;56.968;24.196;2024-02-14T14:11:30;4.60;95.30
72604;DHT22;60645;56.968;24.196;2024-02-14T14:13:57;4.40;95.60
72604;DHT22;60645;56.968;24.196;2024-02-14T14:16:24;4.40;95.80
72604;DHT22;60645;56.968;24.196;2024-02-14T14:18:50;4.00;96.10
72604;DHT22;60645;56.968;24.196;2024-02-14T14:21:20;4.00;96.60
72604;DHT22;60645;56.968;24.196;2024-02-14T14:23:47;3.90;96.70
72604;DHT22;60645;56.968;24.196;2024-02-14T14:26:14;3.80;97.30
72604;DHT22;60645;56.968;24.196;2024-02-14T14:28:42;3.90;97.40
72604;DHT22;60645;56.968;24.196;2024-02-14T14:31:09;3.90;96.70
72604;DHT22;60645;56.968;24.196;2024-02-14T14:33:38;3.80;97.00
72604;DHT22;60645;56.968;24.196;2024-02-14T14:36:06;3.70;97.80
72604;DHT22;60645;56.968;24.196;2024-02-14T14:38:33;3.60;97.90
72604;DHT22;60645;56.968;24.196;2024-02-14T14:41:00;3.70;97.80
72604;DHT22;60645;56.968;24.196;2024-02-14T14:43:27;3.80;97.40
72604;DHT22;60645;56.968;24.196;2024-02-14T14:45:54;3.80;97.30
72604;DHT22;60645;56.968;24.196;2024-02-14T14:48:23;3.80;97.30
72604;DHT22;60645;56.968;24.196;2024-02-14T14:50:50;3.70;97.40
72604;DHT22;60645;56.968;24.196;2024-02-14T14:53:17;3.40;97.40
72604;DHT22;60645;56.968;24.196;2024-02-14T14:55:54;3.50;97.60
72604;DHT22;60645;56.968;24.196;2024-02-14T14:58:23;3.30;98.30
72604;DHT22;60645;56.968;24.196;2024-02-14T15:00:54;3.40;98.20
72604;DHT22;60645;56.968;24.196;2024-02-14T15:03:25;3.40;98.30
72604;DHT22;60645;56.968;24.196;2024-02-14T15:05:52;3.50;98.40
72604;DHT22;60645;56.968;24.196;2024-02-14T15:08:20;3.40;98.50
72604;DHT22;60645;56.968;24.196;2024-02-14T15:10:52;3.30;98.50
72604;DHT22;60645;56.968;24.196;2024-02-14T15:13:19;3.40;98.70
72604;DHT22;60645;56.968;24.196;2024-02-14T15:15:46;3.30;98.80
72604;DHT22;60645;56.968;24.196;2024-02-14T15:18:13;3.50;98.60
72604;DHT22;60645;56.968;24.196;2024-02-14T15:20:40;3.20;98.80
72604;DHT22;60645;56.968;24.196;2024-02-14T15:23:07;3.20;98.90
72604;DHT22;60645;56.968;24.196;2024-02-14T15:25:35;3.30;98.70
72604;DHT22;60645;56.968;24.196;2024-02-14T15:28:09;3.30;98.70
72604;DHT22;60645;56.968;24.196;2024-02-14T15:30:40;3.40;98.80
72604;DHT22;60645;56.968;24.196;2024-02-14T15:33:26;3.30;98.70
72604;DHT22;60645;56.968;24.196;2024-02-14T15:35:56;3.40;98.60